Norsel — LMFQ3 — position and weather

sailwx.info

Track history (hours):
 
Tides and Currents Weather Stations Pressure Air Temp Water Temp Dewpoint Dewpoint Depression Visibility Wind Speed Wind Dir Waves Ship Positions

Norsel

Last reported at 2017-Oct-11 22:51 UTC. Time now 2017-Oct-20 14:37 UTC.
Position N 70°41' E 020°43'.
Warning: this ship's position is 8 days out of date.

Length 96 m; draft 5.7 m.

Type: Ship. MMSI: 258430000.

Date/timePositionNaut miles runAvg speedWind from/ knotsBaromVisibWave heightAir tempDewpointWater temp
2017-Oct-11 22:51N 70°41' E 020°43'3 8.9
2017-Oct-11 22:30N 70°38' E 020°44'4 8.7
2017-Oct-11 22:00N 70°34' E 020°42'4 8.6
2017-Oct-11 21:30N 70°30' E 020°38'4 8.5
2017-Oct-11 21:00N 70°26' E 020°34'4 8.5
2017-Oct-11 20:30N 70°21' E 020°31'4 9.0
2017-Oct-11 20:01N 70°17' E 020°26'4 8.9
2017-Oct-11 19:30N 70°13' E 020°21'5 9.8
2017-Oct-11 19:00N 70°09' E 020°16'5 9.7
2017-Oct-11 18:30N 70°04' E 020°11'5 9.3
2017-Oct-11 18:00N 70°00' E 020°04'5 9.5
2017-Oct-11 17:30N 69°56' E 019°56'5 9.5
2017-Oct-11 17:00N 69°52' E 019°48'20 1.2
2017-Oct-11 00:00N 69°41' E 018°59'0 0.0
2017-Oct-10 23:30N 69°41' E 018°59'0 0.0
2017-Oct-10 23:00N 69°41' E 018°59'0 0.2
2017-Oct-10 22:30N 69°41' E 018°60'2 4.0
2017-Oct-10 22:00N 69°42' E 019°04'0 0.3
2017-Oct-10 21:28N 69°42' E 019°04'0 0.0
2017-Oct-10 20:58N 69°42' E 019°04'0 0.0
2017-Oct-10 20:28N 69°42' E 019°04'0 0.0
2017-Oct-10 20:01N 69°42' E 019°04'0 0.0
2017-Oct-10 19:30N 69°42' E 019°04'0 0.0
2017-Oct-10 19:00N 69°42' E 019°04'0 0.0
2017-Oct-10 18:30N 69°42' E 019°04'0 0.0
2017-Oct-10 17:59N 69°42' E 019°04'0 0.0
2017-Oct-10 17:29N 69°42' E 019°04'0 0.0
2017-Oct-10 16:59N 69°42' E 019°04'0 0.0
2017-Oct-10 16:28N 69°42' E 019°04'0 0.0
2017-Oct-10 15:58N 69°42' E 019°04'0 0.0
2017-Oct-10 15:28N 69°42' E 019°04'0 0.0
2017-Oct-10 15:00N 69°42' E 019°04'0 0.0
2017-Oct-10 14:00N 69°42' E 019°04'0 0.0
2017-Oct-10 13:30N 69°42' E 019°04'0 0.0
2017-Oct-10 12:59N 69°42' E 019°04'0 0.0
2017-Oct-10 12:29N 69°42' E 019°04'0 0.0
2017-Oct-10 11:59N 69°42' E 019°04'0 0.0
2017-Oct-10 11:30N 69°42' E 019°04'0 0.0
2017-Oct-10 11:00N 69°42' E 019°04'0 1.0
2017-Oct-10 10:30N 69°42' E 019°03'3 5.8
2017-Oct-10 10:00N 69°45' E 019°04'5 9.9
2017-Oct-10 09:30N 69°47' E 019°17'510.1
2017-Oct-10 09:00N 69°49' E 019°30'510.1
2017-Oct-10 08:30N 69°51' E 019°44'5 9.8
2017-Oct-10 08:00N 69°55' E 019°52'510.1
2017-Oct-10 07:30N 69°59' E 020°01'510.2
2017-Oct-10 07:00N 70°04' E 020°08'4 8.5
2017-Oct-10 06:30N 70°07' E 020°13'5 9.3
2017-Oct-10 06:00N 70°12' E 020°20'5 9.6
2017-Oct-10 05:30N 70°16' E 020°23'510.1
2017-Oct-10 05:00N 70°21' E 020°28'510.1
2017-Oct-10 04:30N 70°26' E 020°33'510.1
2017-Oct-10 04:00N 70°31' E 020°37'510.1
2017-Oct-10 03:30N 70°35' E 020°41'5 9.9
2017-Oct-10 03:00N 70°40' E 020°44'  
Track history (hours):
 
Tides and Currents Weather Stations Pressure Air Temp Water Temp Dewpoint Dewpoint Depression Visibility Wind Speed Wind Dir Waves Ship Positions

Norsel

Last reported at 2017-Oct-11 22:51 UTC. Time now 2017-Oct-20 14:37 UTC.
Position N 70°41' E 020°43'.
Warning: this ship's position is 8 days out of date.

Length 96 m; draft 5.7 m.

Type: Ship. MMSI: 258430000.

Date/timePositionNaut miles runAvg speedWind from/ knotsBaromVisibWave heightAir tempDewpointWater temp
2017-Oct-11 22:51N 70°41' E 020°43'3 8.9
2017-Oct-11 22:30N 70°38' E 020°44'4 8.7
2017-Oct-11 22:00N 70°34' E 020°42'4 8.6
2017-Oct-11 21:30N 70°30' E 020°38'4 8.5
2017-Oct-11 21:00N 70°26' E 020°34'4 8.5
2017-Oct-11 20:30N 70°21' E 020°31'4 9.0
2017-Oct-11 20:01N 70°17' E 020°26'4 8.9
2017-Oct-11 19:30N 70°13' E 020°21'5 9.8
2017-Oct-11 19:00N 70°09' E 020°16'5 9.7
2017-Oct-11 18:30N 70°04' E 020°11'5 9.3
2017-Oct-11 18:00N 70°00' E 020°04'5 9.5
2017-Oct-11 17:30N 69°56' E 019°56'5 9.5
2017-Oct-11 17:00N 69°52' E 019°48'20 1.2
2017-Oct-11 00:00N 69°41' E 018°59'0 0.0
2017-Oct-10 23:30N 69°41' E 018°59'0 0.0
2017-Oct-10 23:00N 69°41' E 018°59'0 0.2
2017-Oct-10 22:30N 69°41' E 018°60'2 4.0
2017-Oct-10 22:00N 69°42' E 019°04'0 0.3
2017-Oct-10 21:28N 69°42' E 019°04'0 0.0
2017-Oct-10 20:58N 69°42' E 019°04'0 0.0
2017-Oct-10 20:28N 69°42' E 019°04'0 0.0
2017-Oct-10 20:01N 69°42' E 019°04'0 0.0
2017-Oct-10 19:30N 69°42' E 019°04'0 0.0
2017-Oct-10 19:00N 69°42' E 019°04'0 0.0
2017-Oct-10 18:30N 69°42' E 019°04'0 0.0
2017-Oct-10 17:59N 69°42' E 019°04'0 0.0
2017-Oct-10 17:29N 69°42' E 019°04'0 0.0
2017-Oct-10 16:59N 69°42' E 019°04'0 0.0
2017-Oct-10 16:28N 69°42' E 019°04'0 0.0
2017-Oct-10 15:58N 69°42' E 019°04'0 0.0
2017-Oct-10 15:28N 69°42' E 019°04'0 0.0
2017-Oct-10 15:00N 69°42' E 019°04'0 0.0
2017-Oct-10 14:00N 69°42' E 019°04'0 0.0
2017-Oct-10 13:30N 69°42' E 019°04'0 0.0
2017-Oct-10 12:59N 69°42' E 019°04'0 0.0
2017-Oct-10 12:29N 69°42' E 019°04'0 0.0
2017-Oct-10 11:59N 69°42' E 019°04'0 0.0
2017-Oct-10 11:30N 69°42' E 019°04'0 0.0
2017-Oct-10 11:00N 69°42' E 019°04'0 1.0
2017-Oct-10 10:30N 69°42' E 019°03'3 5.8
2017-Oct-10 10:00N 69°45' E 019°04'5 9.9
2017-Oct-10 09:30N 69°47' E 019°17'510.1
2017-Oct-10 09:00N 69°49' E 019°30'510.1
2017-Oct-10 08:30N 69°51' E 019°44'5 9.8
2017-Oct-10 08:00N 69°55' E 019°52'510.1
2017-Oct-10 07:30N 69°59' E 020°01'510.2
2017-Oct-10 07:00N 70°04' E 020°08'4 8.5
2017-Oct-10 06:30N 70°07' E 020°13'5 9.3
2017-Oct-10 06:00N 70°12' E 020°20'5 9.6
2017-Oct-10 05:30N 70°16' E 020°23'510.1
2017-Oct-10 05:00N 70°21' E 020°28'510.1
2017-Oct-10 04:30N 70°26' E 020°33'510.1
2017-Oct-10 04:00N 70°31' E 020°37'510.1
2017-Oct-10 03:30N 70°35' E 020°41'5 9.9
2017-Oct-10 03:00N 70°40' E 020°44'  

Dump ship's entire track history